PWSweather.com
Personal Weather Stations
Station Observations
NAPERVILLE
North Naperville, Naperville, IL 60563

North NapervilleNaperville, IL 60563

Lat: 41.79, Lon: -88.12

Elevation: 771

Station Type:

http://napervilleweather.com

Latest ConditionsUpdated 3:00:00 PM CST Sunday, Jan 19, 2020
Currently Today's Max Today's Min Today's Average
Temperature 17.3°F-8.2°C 17.3°F-8.2°C 1.3°F-17.1°C 6.0°F-14.4°C
Dew Point 11.0°F-11.7°C 11.0°F-11.7°C -3.6°F-19.8°C 1.6°F-16.9°C
Winds 3.0 mph W4.8 kmh W 5.0 mph -8.0 kmh - - 3.4 mph 5.5 kmh
Wind Gusts 8.0 mph12.9 kmh 18.0 mph29.0 kmh - -
Humidity 76% 100% 76% 82%
Pressure 30.46 in1031.5 mb 30.46 in1031.5 mb 30.13 in1020.3 mb -
Hour Temp Dew Point Humidity Winds Wind Gusts Pressure Precip Precip Rate Daily Precip Total
03:00 PM 17.3°F-8.2°C 11.0°F-11.7°C 76% 3.0 mph W4.8 kmh W 8.0 mph12.9 kmh 30.46 in1031.5 mb 0.00 in0.0 mm 0.00 in0.0 mm 0.00 in0.0 mm
02:45 PM 16.7°F-8.5°C 10.7°F-11.8°C 77% 3.0 mph W4.8 kmh W 10.0 mph16.1 kmh 30.45 in1031.2 mb 0.00 in0.0 mm 0.00 in0.0 mm 0.00 in0.0 mm
02:30 PM 16.2°F-8.8°C 10.0°F-12.2°C 76% 4.0 mph W6.4 kmh W 11.0 mph17.7 kmh 30.44 in1030.8 mb 0.00 in0.0 mm 0.00 in0.0 mm 0.00 in0.0 mm
02:15 PM 16.2°F-8.8°C 10.0°F-12.2°C 76% 3.0 mph WSW4.8 kmh WSW 9.0 mph14.5 kmh 30.43 in1030.5 mb 0.00 in0.0 mm 0.00 in0.0 mm 0.00 in0.0 mm
02:00 PM 15.9°F-8.9°C 10.0°F-12.2°C 77% 3.0 mph WSW4.8 kmh WSW 7.0 mph11.3 kmh 30.42 in1030.1 mb 0.00 in0.0 mm 0.00 in0.0 mm 0.00 in0.0 mm
01:45 PM 15.4°F-9.2°C 9.5°F-12.5°C 77% 4.0 mph W6.4 kmh W 14.0 mph22.5 kmh 30.42 in1030.1 mb 0.00 in0.0 mm 0.00 in0.0 mm 0.00 in0.0 mm
01:30 PM 15.2°F-9.3°C 9.0°F-12.8°C 76% 3.0 mph WSW4.8 kmh WSW 9.0 mph14.5 kmh 30.41 in1029.8 mb 0.00 in0.0 mm 0.00 in0.0 mm 0.00 in0.0 mm
01:15 PM 14.6°F-9.7°C 8.7°F-12.9°C 77% 4.0 mph W6.4 kmh W 11.0 mph17.7 kmh 30.42 in1030.1 mb 0.00 in0.0 mm 0.00 in0.0 mm 0.00 in0.0 mm
01:00 PM 14.5°F-9.7°C 8.3°F-13.2°C 76% 4.0 mph W6.4 kmh W 11.0 mph17.7 kmh 30.41 in1029.8 mb 0.00 in0.0 mm 0.00 in0.0 mm 0.00 in0.0 mm
12:45 PM 13.7°F-10.2°C 7.8°F-13.4°C 77% 3.0 mph W4.8 kmh W 10.0 mph16.1 kmh 30.41 in1029.8 mb 0.00 in0.0 mm 0.00 in0.0 mm 0.00 in0.0 mm
12:30 PM 13.2°F-10.4°C 7.3°F-13.7°C 77% 3.0 mph WSW4.8 kmh WSW 9.0 mph14.5 kmh 30.41 in1029.8 mb 0.00 in0.0 mm 0.00 in0.0 mm 0.00 in0.0 mm
12:15 PM 12.0°F-11.1°C 6.2°F-14.3°C 77% 4.0 mph WSW6.4 kmh WSW 12.0 mph19.3 kmh 30.40 in1029.5 mb 0.00 in0.0 mm 0.00 in0.0 mm 0.00 in0.0 mm
12:00 PM 12.1°F-11.1°C 6.3°F-14.3°C 77% 3.0 mph WSW4.8 kmh WSW 9.0 mph14.5 kmh 30.40 in1029.5 mb 0.00 in0.0 mm 0.00 in0.0 mm 0.00 in0.0 mm
11:45 AM 11.6°F-11.3°C 5.8°F-14.6°C 77% 3.0 mph W4.8 kmh W 10.0 mph16.1 kmh 30.39 in1029.1 mb 0.00 in0.0 mm 0.00 in0.0 mm 0.00 in0.0 mm
11:30 AM 10.7°F-11.8°C 4.9°F-15.1°C 77% 3.0 mph WSW4.8 kmh WSW 10.0 mph16.1 kmh 30.39 in1029.1 mb 0.00 in0.0 mm 0.00 in0.0 mm 0.00 in0.0 mm
11:15 AM 10.3°F-12.1°C 4.5°F-15.3°C 77% 3.0 mph WSW4.8 kmh WSW 9.0 mph14.5 kmh 30.39 in1029.1 mb 0.00 in0.0 mm 0.00 in0.0 mm 0.00 in0.0 mm
11:00 AM 9.3°F-12.6°C 3.8°F-15.7°C 78% 4.0 mph W6.4 kmh W 8.0 mph12.9 kmh 30.39 in1029.1 mb 0.00 in0.0 mm 0.00 in0.0 mm 0.00 in0.0 mm
10:45 AM 8.4°F-13.1°C 2.9°F-16.2°C 78% 3.0 mph WSW4.8 kmh WSW 9.0 mph14.5 kmh 30.39 in1029.1 mb 0.00 in0.0 mm 0.00 in0.0 mm 0.00 in0.0 mm
10:30 AM 8.0°F-13.3°C 2.8°F-16.2°C 79% 3.0 mph W4.8 kmh W 10.0 mph16.1 kmh 30.39 in1029.1 mb 0.00 in0.0 mm 0.00 in0.0 mm 0.00 in0.0 mm
10:15 AM 7.2°F-13.8°C 2.1°F-16.6°C 79% 4.0 mph W6.4 kmh W 9.0 mph14.5 kmh 30.39 in1029.1 mb 0.00 in0.0 mm 0.00 in0.0 mm 0.00 in0.0 mm
10:00 AM 6.9°F-13.9°C 2.0°F-16.7°C 80% 3.0 mph WSW4.8 kmh WSW 8.0 mph12.9 kmh 30.38 in1028.8 mb 0.00 in0.0 mm 0.00 in0.0 mm 0.00 in0.0 mm
09:45 AM 5.8°F-14.6°C 1.0°F-17.2°C 80% 2.0 mph SW3.2 kmh SW 13.0 mph20.9 kmh 30.37 in1028.4 mb 0.00 in0.0 mm 0.00 in0.0 mm 0.00 in0.0 mm
09:30 AM 5.1°F-14.9°C 0.3°F-17.6°C 80% 4.0 mph WSW6.4 kmh WSW 11.0 mph17.7 kmh 30.37 in1028.4 mb 0.00 in0.0 mm 0.00 in0.0 mm 0.00 in0.0 mm
09:15 AM 4.6°F-15.2°C -0.2°F-17.9°C 80% 3.0 mph WSW4.8 kmh WSW 12.0 mph19.3 kmh 30.36 in1028.1 mb 0.00 in0.0 mm 0.00 in0.0 mm 0.00 in0.0 mm
09:00 AM 4.2°F-15.4°C -0.3°F-17.9°C 81% 3.0 mph W4.8 kmh W 10.0 mph16.1 kmh 30.35 in1027.8 mb 0.00 in0.0 mm 0.00 in0.0 mm 0.00 in0.0 mm
08:45 AM 3.8°F-15.7°C -0.7°F-18.2°C 81% 3.0 mph WSW4.8 kmh WSW 8.0 mph12.9 kmh 30.35 in1027.8 mb 0.00 in0.0 mm 0.00 in0.0 mm 0.00 in0.0 mm
08:30 AM 3.5°F-15.8°C -1.0°F-18.3°C 81% 2.0 mph WSW3.2 kmh WSW 10.0 mph16.1 kmh 30.34 in1027.4 mb 0.00 in0.0 mm 0.00 in0.0 mm 0.00 in0.0 mm
08:15 AM 3.5°F-15.8°C -1.0°F-18.3°C 81% 2.0 mph WSW3.2 kmh WSW 6.0 mph9.7 kmh 30.33 in1027.1 mb 0.00 in0.0 mm 0.00 in0.0 mm 0.00 in0.0 mm
08:00 AM 1.3°F-17.1°C 1.3°F-17.1°C 100% 3.0 mph WSW4.8 kmh WSW 5.0 mph8.0 kmh 30.32 in1026.8 mb 0.00 in0.0 mm 0.00 in0.0 mm 0.00 in0.0 mm
07:45 AM 1.3°F-17.1°C 1.3°F-17.1°C 100% 3.0 mph WSW4.8 kmh WSW 5.0 mph8.0 kmh 30.31 in1026.4 mb 0.00 in0.0 mm 0.00 in0.0 mm 0.00 in0.0 mm
07:30 AM 1.3°F-17.1°C 1.3°F-17.1°C 100% 3.0 mph WSW4.8 kmh WSW 5.0 mph8.0 kmh 30.30 in1026.1 mb 0.00 in0.0 mm 0.00 in0.0 mm 0.00 in0.0 mm
07:15 AM 1.3°F-17.1°C 1.3°F-17.1°C 100% 3.0 mph WSW4.8 kmh WSW 5.0 mph8.0 kmh 30.30 in1026.1 mb 0.00 in0.0 mm 0.00 in0.0 mm 0.00 in0.0 mm
07:00 AM 1.3°F-17.1°C 1.3°F-17.1°C 100% 3.0 mph WSW4.8 kmh WSW 5.0 mph8.0 kmh 30.29 in1025.7 mb 0.00 in0.0 mm 0.00 in0.0 mm 0.00 in0.0 mm
06:45 AM 1.3°F-17.1°C 1.3°F-17.1°C 100% 3.0 mph WSW4.8 kmh WSW 5.0 mph8.0 kmh 30.29 in1025.7 mb 0.00 in0.0 mm 0.00 in0.0 mm 0.00 in0.0 mm
06:30 AM 1.3°F-17.1°C 1.3°F-17.1°C 100% 3.0 mph WSW4.8 kmh WSW 5.0 mph8.0 kmh 30.27 in1025.1 mb 0.00 in0.0 mm 0.00 in0.0 mm 0.00 in0.0 mm
06:15 AM 1.3°F-17.1°C 1.3°F-17.1°C 100% 3.0 mph WSW4.8 kmh WSW 5.0 mph8.0 kmh 30.27 in1025.1 mb 0.00 in0.0 mm 0.00 in0.0 mm 0.00 in0.0 mm
06:00 AM 1.3°F-17.1°C 1.3°F-17.1°C 100% 3.0 mph WSW4.8 kmh WSW 5.0 mph8.0 kmh 30.27 in1025.1 mb 0.00 in0.0 mm 0.00 in0.0 mm 0.00 in0.0 mm
05:45 AM 1.3°F-17.1°C 1.3°F-17.1°C 100% 3.0 mph WSW4.8 kmh WSW 5.0 mph8.0 kmh 30.26 in1024.7 mb 0.00 in0.0 mm 0.00 in0.0 mm 0.00 in0.0 mm
05:30 AM 1.3°F-17.1°C 1.3°F-17.1°C 100% 3.0 mph WSW4.8 kmh WSW 5.0 mph8.0 kmh 30.25 in1024.4 mb 0.00 in0.0 mm 0.00 in0.0 mm 0.00 in0.0 mm
05:15 AM 1.7°F-16.8°C -3.3°F-19.6°C 79% 3.0 mph WSW4.8 kmh WSW 9.0 mph14.5 kmh 30.25 in1024.4 mb 0.00 in0.0 mm 0.00 in0.0 mm 0.00 in0.0 mm
05:00 AM 1.8°F-16.8°C -3.2°F-19.6°C 79% 3.0 mph WSW4.8 kmh WSW 15.0 mph24.1 kmh 30.24 in1024.0 mb 0.00 in0.0 mm 0.00 in0.0 mm 0.00 in0.0 mm
04:45 AM 1.7°F-16.8°C -3.3°F-19.6°C 79% 4.0 mph W6.4 kmh W 10.0 mph16.1 kmh 30.24 in1024.0 mb 0.00 in0.0 mm 0.00 in0.0 mm 0.00 in0.0 mm
04:30 AM 1.6°F-16.9°C -3.4°F-19.7°C 79% 4.0 mph WSW6.4 kmh WSW 18.0 mph29.0 kmh 30.23 in1023.7 mb 0.00 in0.0 mm 0.00 in0.0 mm 0.00 in0.0 mm
04:15 AM 1.5°F-16.9°C -3.5°F-19.7°C 79% 3.0 mph WSW4.8 kmh WSW 13.0 mph20.9 kmh 30.22 in1023.4 mb 0.00 in0.0 mm 0.00 in0.0 mm 0.00 in0.0 mm
04:00 AM 1.5°F-16.9°C -3.5°F-19.7°C 79% 3.0 mph WSW4.8 kmh WSW 14.0 mph22.5 kmh 30.21 in1023.0 mb 0.00 in0.0 mm 0.00 in0.0 mm 0.00 in0.0 mm
03:45 AM 1.7°F-16.8°C -3.6°F-19.8°C 78% 3.0 mph WSW4.8 kmh WSW 14.0 mph22.5 kmh 30.21 in1023.0 mb 0.00 in0.0 mm 0.00 in0.0 mm 0.00 in0.0 mm
03:30 AM 1.9°F-16.7°C -3.4°F-19.7°C 78% 3.0 mph WSW4.8 kmh WSW 10.0 mph16.1 kmh 30.20 in1022.7 mb 0.00 in0.0 mm 0.00 in0.0 mm 0.00 in0.0 mm
03:15 AM 2.1°F-16.6°C -3.2°F-19.6°C 78% 5.0 mph WSW8.0 kmh WSW 15.0 mph24.1 kmh 30.19 in1022.4 mb 0.00 in0.0 mm 0.00 in0.0 mm 0.00 in0.0 mm
03:00 AM 2.3°F-16.5°C -3.0°F-19.4°C 78% 4.0 mph WSW6.4 kmh WSW 14.0 mph22.5 kmh 30.18 in1022.0 mb 0.00 in0.0 mm 0.00 in0.0 mm 0.00 in0.0 mm
02:45 AM 2.5°F-16.4°C -2.8°F-19.3°C 78% 5.0 mph WSW8.0 kmh WSW 14.0 mph22.5 kmh 30.18 in1022.0 mb 0.00 in0.0 mm 0.00 in0.0 mm 0.00 in0.0 mm
02:30 AM 2.6°F-16.3°C -2.7°F-19.3°C 78% 4.0 mph WSW6.4 kmh WSW 12.0 mph19.3 kmh 30.18 in1022.0 mb 0.00 in0.0 mm 0.00 in0.0 mm 0.00 in0.0 mm
02:15 AM 2.6°F-16.3°C -3.0°F-19.4°C 77% 4.0 mph WSW6.4 kmh WSW 10.0 mph16.1 kmh 30.17 in1021.7 mb 0.00 in0.0 mm 0.00 in0.0 mm 0.00 in0.0 mm
02:00 AM 2.9°F-16.2°C -2.7°F-19.3°C 77% 5.0 mph WSW8.0 kmh WSW 17.0 mph27.4 kmh 30.17 in1021.7 mb 0.00 in0.0 mm 0.00 in0.0 mm 0.00 in0.0 mm
01:45 AM 3.2°F-16.0°C -2.4°F-19.1°C 77% 4.0 mph WSW6.4 kmh WSW 10.0 mph16.1 kmh 30.16 in1021.3 mb 0.00 in0.0 mm 0.00 in0.0 mm 0.00 in0.0 mm
01:30 AM 3.5°F-15.8°C -1.8°F-18.8°C 78% 3.0 mph WSW4.8 kmh WSW 8.0 mph12.9 kmh 30.15 in1021.0 mb 0.00 in0.0 mm 0.00 in0.0 mm 0.00 in0.0 mm
01:15 AM 3.5°F-15.8°C -2.1°F-18.9°C 77% 4.0 mph SW6.4 kmh SW 12.0 mph19.3 kmh 30.15 in1021.0 mb 0.00 in0.0 mm 0.00 in0.0 mm 0.00 in0.0 mm
01:00 AM 3.6°F-15.8°C -2.0°F-18.9°C 77% 4.0 mph SW6.4 kmh SW 12.0 mph19.3 kmh 30.14 in1020.7 mb 0.00 in0.0 mm 0.00 in0.0 mm 0.00 in0.0 mm
12:45 AM 3.8°F-15.7°C -1.8°F-18.8°C 77% 4.0 mph WSW6.4 kmh WSW 15.0 mph24.1 kmh 30.14 in1020.7 mb 0.00 in0.0 mm 0.00 in0.0 mm 0.00 in0.0 mm
12:30 AM 4.0°F-15.6°C -1.6°F-18.7°C 77% 3.0 mph WSW4.8 kmh WSW 17.0 mph27.4 kmh 30.14 in1020.7 mb 0.00 in0.0 mm 0.00 in0.0 mm 0.00 in0.0 mm
12:15 AM 4.1°F-15.5°C -1.5°F-18.6°C 77% 4.0 mph WSW6.4 kmh WSW 13.0 mph20.9 kmh 30.13 in1020.3 mb 0.00 in0.0 mm 0.00 in0.0 mm 0.00 in0.0 mm
12:00 AM 4.3°F-15.4°C -1.6°F-18.7°C 76% 4.0 mph WSW6.4 kmh WSW 15.0 mph24.1 kmh 30.13 in1020.3 mb 0.00 in0.0 mm 0.00 in0.0 mm 0.00 in0.0 mm